createdAt,value
2022-11-02T00:01:31.106Z,13.40
2022-11-02T00:03:58.010Z,13.50
2022-11-02T00:06:24.748Z,13.40
2022-11-02T00:08:51.544Z,13.50
2022-11-02T00:11:18.358Z,13.50
2022-11-02T00:13:45.111Z,13.40
2022-11-02T00:16:15.739Z,13.40
2022-11-02T00:18:44.240Z,13.40
2022-11-02T00:21:11.747Z,13.40
2022-11-02T00:23:40.556Z,13.40
2022-11-02T00:26:07.559Z,13.30
2022-11-02T00:28:35.197Z,13.30
2022-11-02T00:31:01.969Z,13.30
2022-11-02T00:33:28.803Z,13.30
2022-11-02T00:35:56.180Z,13.20
2022-11-02T00:38:23.212Z,13.20
2022-11-02T00:40:50.023Z,13.20
2022-11-02T00:43:16.775Z,13.10
2022-11-02T00:45:43.521Z,13.10
2022-11-02T00:48:10.614Z,13.10
2022-11-02T00:50:37.964Z,13.10
2022-11-02T00:53:04.826Z,13.10
2022-11-02T00:55:31.689Z,13.20
2022-11-02T00:57:58.536Z,13.20
2022-11-02T01:00:25.501Z,13.20
2022-11-02T01:02:52.323Z,13.50
2022-11-02T01:05:19.279Z,13.00
2022-11-02T01:07:46.473Z,13.10
2022-11-02T01:10:13.290Z,13.10
2022-11-02T01:12:40.786Z,13.10
2022-11-02T01:15:08.819Z,13.10
2022-11-02T01:17:35.722Z,13.10
2022-11-02T01:20:03.322Z,13.10
2022-11-02T01:22:30.285Z,13.10
2022-11-02T01:24:57.138Z,13.10
2022-11-02T01:27:24.124Z,14.50
2022-11-02T01:29:50.956Z,13.10
2022-11-02T01:32:17.680Z,13.00
2022-11-02T01:34:44.507Z,13.00
2022-11-02T01:37:11.482Z,12.90
2022-11-02T01:39:38.317Z,12.90
2022-11-02T01:42:23.430Z,12.90
2022-11-02T01:44:50.382Z,12.90
2022-11-02T01:47:31.414Z,12.90
2022-11-02T01:50:05.433Z,12.90
2022-11-02T01:52:37.094Z,13.00
2022-11-02T01:55:09.855Z,12.90
2022-11-02T01:57:38.081Z,12.90
2022-11-02T02:00:12.116Z,12.90
2022-11-02T02:02:45.383Z,12.80
2022-11-02T02:05:14.413Z,12.80
2022-11-02T02:07:42.045Z,12.70
2022-11-02T02:10:09.519Z,13.20
2022-11-02T02:12:39.294Z,12.50
2022-11-02T02:15:06.865Z,12.50
2022-11-02T02:17:36.458Z,12.50
2022-11-02T02:20:08.162Z,12.50
2022-11-02T02:22:53.228Z,12.60
2022-11-02T02:25:38.596Z,12.50
2022-11-02T02:28:19.632Z,12.40
2022-11-02T02:31:01.536Z,12.40
2022-11-02T02:33:30.911Z,12.40
2022-11-02T02:36:04.287Z,12.40
2022-11-02T02:38:36.638Z,12.50
2022-11-02T02:41:18.553Z,12.90
2022-11-02T02:43:54.941Z,12.60
2022-11-02T02:46:34.568Z,12.60
2022-11-02T02:49:03.355Z,12.50
2022-11-02T02:51:32.958Z,12.50
2022-11-02T02:54:20.388Z,12.40
2022-11-02T02:56:52.803Z,12.30
2022-11-02T02:59:24.768Z,12.20
2022-11-02T03:01:53.850Z,12.60
2022-11-02T03:04:20.870Z,12.40
2022-11-02T03:06:53.606Z,12.40
2022-11-02T03:09:20.970Z,12.50
2022-11-02T03:12:16.421Z,12.40
2022-11-02T03:15:04.895Z,12.50
2022-11-02T03:17:57.214Z,12.50
2022-11-02T03:21:01.001Z,12.40
2022-11-02T03:23:30.872Z,12.40
2022-11-02T03:26:14.682Z,12.30
2022-11-02T03:29:05.015Z,12.30
2022-11-02T03:31:37.960Z,12.30
2022-11-02T03:34:37.302Z,12.30
2022-11-02T03:37:16.472Z,12.30
2022-11-02T03:40:03.478Z,12.10
2022-11-02T03:42:33.202Z,12.10
2022-11-02T03:45:22.651Z,12.20
2022-11-02T03:47:58.660Z,12.20
2022-11-02T03:50:27.633Z,12.50
2022-11-02T03:53:05.635Z,12.30
2022-11-02T03:55:38.963Z,12.20
2022-11-02T03:58:06.178Z,12.20
2022-11-02T04:00:36.072Z,12.20
2022-11-02T04:03:07.023Z,12.20
2022-11-02T04:05:36.021Z,12.20
2022-11-02T04:08:22.086Z,12.20
2022-11-02T04:11:09.546Z,12.10
2022-11-02T04:13:55.245Z,12.50
2022-11-02T04:16:26.696Z,12.20
2022-11-02T04:19:13.942Z,12.20
2022-11-02T04:21:41.524Z,12.30
2022-11-02T04:24:27.702Z,12.20
2022-11-02T04:26:54.434Z,12.20
2022-11-02T04:29:21.178Z,12.30
2022-11-02T04:31:47.878Z,12.30
2022-11-02T04:34:14.658Z,12.20
2022-11-02T04:36:41.416Z,12.20
2022-11-02T04:39:08.188Z,12.30
2022-11-02T04:41:44.099Z,12.00
2022-11-02T04:44:14.286Z,12.70
2022-11-02T04:46:42.516Z,12.30
2022-11-02T04:49:10.348Z,12.20
2022-11-02T04:51:40.117Z,12.00
2022-11-02T04:54:07.015Z,12.10
2022-11-02T04:56:33.879Z,12.10
2022-11-02T04:59:00.879Z,12.10
2022-11-02T05:01:29.528Z,12.10
2022-11-02T05:03:57.075Z,12.70
2022-11-02T05:06:24.905Z,12.10
2022-11-02T05:08:52.283Z,12.10
2022-11-02T05:11:21.193Z,12.30
2022-11-02T05:13:49.589Z,12.20
2022-11-02T05:16:18.093Z,12.20
2022-11-02T05:18:46.078Z,12.20
2022-11-02T05:21:13.123Z,12.20
2022-11-02T05:23:39.891Z,12.20
2022-11-02T05:26:12.040Z,12.20
2022-11-02T05:28:39.268Z,12.60
2022-11-02T05:31:06.538Z,12.50
2022-11-02T05:33:33.932Z,12.20
2022-11-02T05:36:01.332Z,12.30
2022-11-02T05:38:29.018Z,12.20
2022-11-02T05:40:58.303Z,12.30
2022-11-02T05:43:26.943Z,12.20
2022-11-02T05:45:59.133Z,12.20
2022-11-02T05:48:28.104Z,12.20
2022-11-02T05:51:00.170Z,12.10
2022-11-02T05:53:28.126Z,12.10
2022-11-02T05:55:59.459Z,12.10
2022-11-02T05:58:27.110Z,12.20
2022-11-02T06:00:54.174Z,12.10
2022-11-02T06:03:20.951Z,12.10
2022-11-02T06:05:47.990Z,12.20
2022-11-02T06:08:14.960Z,12.20
2022-11-02T06:10:43.398Z,12.20
2022-11-02T06:13:10.281Z,13.00
2022-11-02T06:15:37.011Z,12.30
2022-11-02T06:18:03.900Z,12.30
2022-11-02T06:20:30.794Z,12.30
2022-11-02T06:22:57.621Z,12.30
2022-11-02T06:25:24.685Z,12.20
2022-11-02T06:27:57.011Z,12.20
2022-11-02T06:30:25.475Z,12.30
2022-11-02T06:32:54.136Z,12.20
2022-11-02T06:35:22.725Z,12.30
2022-11-02T06:37:49.798Z,12.30
2022-11-02T06:40:18.350Z,12.30
2022-11-02T06:43:03.419Z,12.20
2022-11-02T06:45:34.206Z,12.30
2022-11-02T06:48:01.163Z,12.30
2022-11-02T06:50:28.048Z,12.30
2022-11-02T06:52:54.793Z,12.40
2022-11-02T06:55:21.620Z,12.30
2022-11-02T06:57:48.662Z,12.50
2022-11-02T07:00:21.130Z,12.50
2022-11-02T07:03:09.714Z,12.50
2022-11-02T07:05:37.432Z,12.60
2022-11-02T07:08:05.194Z,12.60
2022-11-02T07:10:32.162Z,12.70
2022-11-02T07:12:59.174Z,12.80
2022-11-02T07:15:27.004Z,12.90
2022-11-02T07:17:54.484Z,12.90
2022-11-02T07:20:21.834Z,12.90
2022-11-02T07:22:57.559Z,12.80
2022-11-02T07:25:26.370Z,12.40
2022-11-02T07:27:54.083Z,12.90
2022-11-02T07:30:22.852Z,13.00
2022-11-02T07:32:49.649Z,13.00
2022-11-02T07:35:17.707Z,13.10
2022-11-02T07:37:45.076Z,13.20
2022-11-02T07:40:14.314Z,13.20
2022-11-02T07:42:46.968Z,13.20
2022-11-02T07:45:14.298Z,13.20
2022-11-02T07:47:47.830Z,13.30
2022-11-02T07:50:20.416Z,13.30
2022-11-02T07:52:53.202Z,13.30
2022-11-02T07:55:23.123Z,13.30
2022-11-02T07:57:59.155Z,13.30
2022-11-02T08:00:28.582Z,13.40
2022-11-02T08:02:56.720Z,13.40
2022-11-02T08:05:24.044Z,13.40
2022-11-02T08:08:02.367Z,13.50
2022-11-02T08:10:35.385Z,13.60
2022-11-02T08:13:06.861Z,13.60
2022-11-02T08:15:33.661Z,13.80
2022-11-02T08:18:21.848Z,13.70
2022-11-02T08:20:50.153Z,14.30
2022-11-02T08:23:18.948Z,13.70
2022-11-02T08:25:47.353Z,13.80
2022-11-02T08:28:17.703Z,13.90
2022-11-02T08:30:45.785Z,13.90
2022-11-02T08:33:18.049Z,13.90
2022-11-02T08:35:47.342Z,14.00
2022-11-02T08:38:15.298Z,14.10
2022-11-02T08:40:43.492Z,14.10
2022-11-02T08:43:13.419Z,14.10
2022-11-02T08:46:13.165Z,14.20
2022-11-02T08:48:29.689Z,14.20
2022-11-02T08:50:56.516Z,14.20
2022-11-02T08:53:23.652Z,14.30
2022-11-02T08:55:50.604Z,14.30
2022-11-02T08:58:18.665Z,14.50
2022-11-02T09:00:45.698Z,14.40
2022-11-02T09:03:14.614Z,14.50
2022-11-02T09:05:46.705Z,14.60
2022-11-02T09:08:19.322Z,14.70
2022-11-02T09:10:49.332Z,14.70
2022-11-02T09:13:20.785Z,14.80
2022-11-02T09:15:50.751Z,14.90
2022-11-02T09:18:17.536Z,15.10
2022-11-02T09:20:44.343Z,14.90
2022-11-02T09:23:11.227Z,15.00
2022-11-02T09:25:38.294Z,15.10
2022-11-02T09:28:05.369Z,15.10
2022-11-02T09:30:32.666Z,15.20
2022-11-02T09:33:05.294Z,15.30
2022-11-02T09:35:39.836Z,15.40
2022-11-02T09:38:06.833Z,15.50
2022-11-02T09:40:38.387Z,15.60
2022-11-02T09:43:36.174Z,16.70
2022-11-02T09:46:15.676Z,15.70
2022-11-02T09:48:47.057Z,15.70
2022-11-02T09:51:27.665Z,15.70
2022-11-02T09:54:06.827Z,15.70
2022-11-02T09:56:35.565Z,15.70
2022-11-02T09:59:10.284Z,15.70
2022-11-02T10:02:08.127Z,15.80
2022-11-02T10:04:56.468Z,15.80
2022-11-02T10:07:23.470Z,16.00
2022-11-02T10:09:56.763Z,16.00
2022-11-02T10:13:08.203Z,16.00
2022-11-02T10:16:13.367Z,16.00
2022-11-02T10:18:42.800Z,16.00
2022-11-02T10:21:15.764Z,16.00
2022-11-02T10:23:58.145Z,16.00
2022-11-02T10:26:36.274Z,16.10
2022-11-02T10:29:45.206Z,16.00
2022-11-02T10:32:13.963Z,16.10
2022-11-02T10:34:41.802Z,16.10
2022-11-02T10:37:22.747Z,16.10
2022-11-02T10:40:03.171Z,16.10
2022-11-02T10:43:08.291Z,16.20
2022-11-02T10:45:48.249Z,16.30
2022-11-02T10:48:39.541Z,16.30
2022-11-02T10:51:10.348Z,16.30
2022-11-02T10:53:42.233Z,16.40
2022-11-02T10:56:29.210Z,16.40
2022-11-02T10:58:59.203Z,16.40
2022-11-02T11:01:27.928Z,16.50
2022-11-02T11:04:00.856Z,16.50
2022-11-02T11:06:48.151Z,16.60
2022-11-02T11:09:30.736Z,16.60
2022-11-02T11:12:13.812Z,16.70
2022-11-02T11:20:38.744Z,16.70
2022-11-02T11:23:25.936Z,16.80
2022-11-02T11:25:58.988Z,16.80
2022-11-02T11:28:27.320Z,16.80
2022-11-02T11:31:13.159Z,16.80
2022-11-02T11:33:46.301Z,16.80
2022-11-02T11:36:23.476Z,16.80
2022-11-02T11:38:54.045Z,16.80
2022-11-02T11:41:21.291Z,16.90
2022-11-02T11:43:51.107Z,16.80
2022-11-02T11:46:18.097Z,16.80
2022-11-02T11:48:56.723Z,16.80
2022-11-02T11:51:31.044Z,16.90
2022-11-02T11:54:20.098Z,16.90
2022-11-02T11:56:48.305Z,16.90
2022-11-02T11:59:21.386Z,17.00
2022-11-02T12:01:48.684Z,16.90
2022-11-02T12:04:29.149Z,16.90
2022-11-02T12:07:28.261Z,16.80
2022-11-02T12:10:24.374Z,16.80
2022-11-02T12:13:13.443Z,16.80
2022-11-02T12:16:07.815Z,16.80
2022-11-02T12:19:01.975Z,16.90
2022-11-02T12:21:40.347Z,16.90
2022-11-02T12:24:16.720Z,16.90
2022-11-02T12:26:49.142Z,16.90
2022-11-02T12:30:15.111Z,16.90
2022-11-02T12:33:07.044Z,16.90
2022-11-02T12:35:42.652Z,16.90
2022-11-02T12:38:34.822Z,16.90
2022-11-02T12:41:12.420Z,16.80
2022-11-02T12:43:49.103Z,16.90
2022-11-02T12:46:42.270Z,16.90
2022-11-02T12:49:12.950Z,16.90
2022-11-02T12:52:13.724Z,16.90
2022-11-02T12:54:46.229Z,16.90
2022-11-02T12:57:16.517Z,16.90
2022-11-02T12:59:44.781Z,17.00
2022-11-02T13:02:30.773Z,16.90
2022-11-02T13:05:19.872Z,17.00
2022-11-02T13:08:15.880Z,16.90
2022-11-02T13:10:54.435Z,16.90
2022-11-02T13:13:37.891Z,16.90
2022-11-02T13:16:07.929Z,16.90
2022-11-02T13:18:55.192Z,17.00
2022-11-02T13:21:45.804Z,16.90
2022-11-02T13:24:53.409Z,17.00
2022-11-02T13:27:36.813Z,16.90
2022-11-02T13:30:24.943Z,17.00
2022-11-02T13:33:16.025Z,17.00
2022-11-02T13:35:43.559Z,17.00
2022-11-02T13:38:13.550Z,17.00
2022-11-02T13:40:45.895Z,17.10
2022-11-02T13:43:47.222Z,17.10
2022-11-02T13:46:51.120Z,17.10
2022-11-02T13:49:29.436Z,17.10
2022-11-02T13:52:16.996Z,17.10
2022-11-02T13:57:37.400Z,17.20
2022-11-02T14:00:26.234Z,17.20
2022-11-02T14:03:08.189Z,17.10
2022-11-02T14:05:44.399Z,17.10
2022-11-02T14:08:37.882Z,17.10
2022-11-02T14:11:04.682Z,17.20
2022-11-02T14:13:52.012Z,17.10
2022-11-02T14:16:44.935Z,17.10
2022-11-02T14:19:19.465Z,17.10
2022-11-02T14:21:50.032Z,17.10
2022-11-02T14:24:38.254Z,17.10
2022-11-02T14:27:14.116Z,17.10
2022-11-02T14:29:47.021Z,17.10
2022-11-02T14:32:31.532Z,17.10
2022-11-02T14:35:37.891Z,17.10
2022-11-02T14:38:38.691Z,17.10
2022-11-02T14:41:42.673Z,17.20
2022-11-02T14:44:20.162Z,17.10
2022-11-02T14:47:19.027Z,17.10
2022-11-02T14:49:56.464Z,17.10
2022-11-02T14:52:31.995Z,17.10
2022-11-02T14:55:19.671Z,17.00
2022-11-02T14:57:58.628Z,17.10
2022-11-02T15:00:33.648Z,17.10
2022-11-02T15:03:01.557Z,17.10
2022-11-02T15:05:35.909Z,17.00
2022-11-02T15:08:16.133Z,17.00
2022-11-02T15:10:45.194Z,17.00
2022-11-02T15:13:21.403Z,17.00
2022-11-02T15:15:51.802Z,17.00
2022-11-02T15:18:30.451Z,17.00
2022-11-02T15:21:22.485Z,16.90
2022-11-02T15:24:04.619Z,16.90
2022-11-02T15:26:53.722Z,16.80
2022-11-02T15:29:33.388Z,16.80
2022-11-02T15:32:02.095Z,16.70
2022-11-02T15:34:43.791Z,16.70
2022-11-02T15:37:24.759Z,16.70
2022-11-02T15:39:54.065Z,16.70
2022-11-02T15:42:44.629Z,16.60
2022-11-02T15:45:49.011Z,16.60
2022-11-02T15:48:35.296Z,16.50
2022-11-02T15:51:02.010Z,16.50
2022-11-02T15:53:47.715Z,16.50
2022-11-02T15:56:32.537Z,16.40
2022-11-02T15:59:17.320Z,16.40
2022-11-02T16:01:44.290Z,16.30
2022-11-02T16:04:22.200Z,16.30
2022-11-02T16:06:49.640Z,16.20
2022-11-02T16:09:34.768Z,16.30
2022-11-02T16:12:13.056Z,16.10
2022-11-02T16:14:40.660Z,16.00
2022-11-02T16:17:28.247Z,16.10
2022-11-02T16:20:28.790Z,16.00
2022-11-02T16:23:06.545Z,16.00
2022-11-02T16:25:40.704Z,16.00
2022-11-02T16:28:22.622Z,15.90
2022-11-02T16:31:10.928Z,15.90
2022-11-02T16:33:43.998Z,15.80
2022-11-02T16:36:37.956Z,15.70
2022-11-02T16:39:16.485Z,15.80
2022-11-02T16:41:55.818Z,15.80
2022-11-02T16:44:31.089Z,15.70
2022-11-02T16:47:18.393Z,15.70
2022-11-02T16:49:51.543Z,15.70
2022-11-02T16:52:25.713Z,15.50
2022-11-02T16:54:52.652Z,15.60
2022-11-02T16:57:23.777Z,16.50
2022-11-02T16:59:51.561Z,15.50
2022-11-02T17:02:19.636Z,15.40
2022-11-02T17:04:47.940Z,15.40
2022-11-02T17:07:24.668Z,15.40
2022-11-02T17:09:59.499Z,15.40
2022-11-02T17:12:35.759Z,15.40
2022-11-02T17:15:14.287Z,15.30
2022-11-02T17:17:41.131Z,15.30
2022-11-02T17:20:09.684Z,15.30
2022-11-02T17:22:39.029Z,15.20
2022-11-02T17:25:21.133Z,15.10
2022-11-02T17:27:48.676Z,15.10
2022-11-02T17:30:33.516Z,15.10
2022-11-02T17:33:09.771Z,15.10
2022-11-02T17:35:37.180Z,15.00
2022-11-02T17:38:04.346Z,14.90
2022-11-02T17:40:32.157Z,14.90
2022-11-02T17:42:58.982Z,15.20
2022-11-02T17:45:28.588Z,14.80
2022-11-02T17:48:00.200Z,14.80
2022-11-02T17:50:31.602Z,14.70
2022-11-02T17:52:59.822Z,14.60
2022-11-02T17:55:29.180Z,14.60
2022-11-02T17:57:57.086Z,14.70
2022-11-02T18:00:25.068Z,14.60
2022-11-02T18:02:54.251Z,14.40
2022-11-02T18:05:35.161Z,14.40
2022-11-02T18:08:03.089Z,14.40
2022-11-02T18:10:37.032Z,14.40
2022-11-02T18:13:04.492Z,14.40
2022-11-02T18:15:33.226Z,14.30
2022-11-02T18:18:00.187Z,14.30
2022-11-02T18:20:28.483Z,14.20
2022-11-02T18:22:56.972Z,14.20
2022-11-02T18:25:26.310Z,14.10
2022-11-02T18:27:53.891Z,14.10
2022-11-02T18:30:20.701Z,14.10
2022-11-02T18:32:47.663Z,14.20
2022-11-02T18:35:17.305Z,14.20
2022-11-02T18:37:44.767Z,14.30
2022-11-02T18:40:14.443Z,14.20
2022-11-02T18:42:42.670Z,14.20
2022-11-02T18:45:11.841Z,14.10
2022-11-02T18:47:38.956Z,14.10
2022-11-02T18:50:06.929Z,14.10
2022-11-02T18:52:33.881Z,14.00
2022-11-02T18:55:05.085Z,13.90
2022-11-02T18:57:32.918Z,13.90
2022-11-02T19:00:02.741Z,14.00
2022-11-02T19:02:30.000Z,13.90
2022-11-02T19:04:56.999Z,14.60
2022-11-02T19:07:44.447Z,14.20
2022-11-02T19:10:11.172Z,13.80
2022-11-02T19:12:38.176Z,13.80
2022-11-02T19:15:05.904Z,15.20
2022-11-02T19:17:32.994Z,13.70
2022-11-02T19:20:00.039Z,13.80
2022-11-02T19:22:27.157Z,13.70
2022-11-02T19:24:53.894Z,13.90
2022-11-02T19:27:22.852Z,13.70
2022-11-02T19:29:49.939Z,13.60
2022-11-02T19:32:17.454Z,13.60
2022-11-02T19:34:44.298Z,13.60
2022-11-02T19:37:12.007Z,13.80
2022-11-02T19:39:38.725Z,13.60
2022-11-02T19:42:07.357Z,13.60
2022-11-02T19:44:39.605Z,13.50
2022-11-02T19:47:10.323Z,13.50
2022-11-02T19:49:37.265Z,13.40
2022-11-02T19:52:04.189Z,13.40
2022-11-02T19:54:30.897Z,13.40
2022-11-02T19:56:57.625Z,13.50
2022-11-02T19:59:24.421Z,13.40
2022-11-02T20:01:52.406Z,13.40
2022-11-02T20:04:19.400Z,13.40
2022-11-02T20:06:46.334Z,13.40
2022-11-02T20:09:16.279Z,13.50
2022-11-02T20:11:45.176Z,13.30
2022-11-02T20:14:13.551Z,13.30
2022-11-02T20:16:40.517Z,13.30
2022-11-02T20:19:07.903Z,13.40
2022-11-02T20:21:39.843Z,13.30
2022-11-02T20:24:08.537Z,13.30
2022-11-02T20:26:37.568Z,13.30
2022-11-02T20:29:05.915Z,13.30
2022-11-02T20:31:35.868Z,13.20
2022-11-02T20:34:04.534Z,13.10
2022-11-02T20:36:31.566Z,13.20
2022-11-02T20:38:58.775Z,13.10
2022-11-02T20:41:26.219Z,13.00
2022-11-02T20:43:57.837Z,13.00
2022-11-02T20:46:44.502Z,13.00
2022-11-02T20:49:22.191Z,12.90
2022-11-02T20:51:56.330Z,12.90
2022-11-02T20:54:23.201Z,12.90
2022-11-02T20:56:50.903Z,12.80
2022-11-02T20:59:18.078Z,12.90
2022-11-02T21:01:45.401Z,12.80
2022-11-02T21:04:18.520Z,12.80
2022-11-02T21:06:48.131Z,12.70
2022-11-02T21:09:15.010Z,12.70
2022-11-02T21:12:00.457Z,12.70
2022-11-02T21:14:27.247Z,12.70
2022-11-02T21:16:53.980Z,12.60
2022-11-02T21:19:21.492Z,12.70
2022-11-02T21:21:48.302Z,12.60
2022-11-02T21:24:15.038Z,12.60
2022-11-02T21:26:41.814Z,12.60
2022-11-02T21:29:09.709Z,12.60
2022-11-02T21:31:36.863Z,13.40
2022-11-02T21:34:04.712Z,12.50
2022-11-02T21:36:31.476Z,12.50
2022-11-02T21:38:58.985Z,12.40
2022-11-02T21:41:28.675Z,12.40
2022-11-02T21:43:55.990Z,12.40
2022-11-02T21:46:24.243Z,12.40
2022-11-02T21:48:51.091Z,12.40
2022-11-02T21:51:19.859Z,12.30
2022-11-02T21:53:47.827Z,12.30
2022-11-02T21:56:18.517Z,12.30
2022-11-02T21:58:46.557Z,12.30
2022-11-02T22:01:37.430Z,12.30
2022-11-02T22:04:05.095Z,12.30
2022-11-02T22:06:32.209Z,12.20
2022-11-02T22:09:00.260Z,12.20
2022-11-02T22:11:28.303Z,12.20
2022-11-02T22:13:56.957Z,12.20
2022-11-02T22:16:32.178Z,12.20
2022-11-02T22:19:01.493Z,12.20
2022-11-02T22:21:30.662Z,12.40
2022-11-02T22:23:57.462Z,12.10
2022-11-02T22:26:26.323Z,12.30
2022-11-02T22:28:53.680Z,12.10
2022-11-02T22:31:23.356Z,12.10
2022-11-02T22:33:52.458Z,12.20
2022-11-02T22:36:22.771Z,12.10
2022-11-02T22:38:56.849Z,12.10
2022-11-02T22:41:30.345Z,12.00
2022-11-02T22:44:01.856Z,12.00
2022-11-02T22:46:30.608Z,12.10
2022-11-02T22:48:59.318Z,12.00
2022-11-02T22:51:28.396Z,12.00
2022-11-02T22:53:55.558Z,12.40
2022-11-02T22:56:23.340Z,11.90
2022-11-02T22:58:50.594Z,11.90
2022-11-02T23:01:23.696Z,11.90
2022-11-02T23:03:50.831Z,12.10
2022-11-02T23:06:21.296Z,11.90
2022-11-02T23:08:49.700Z,12.00
2022-11-02T23:11:22.224Z,11.90
2022-11-02T23:13:54.331Z,12.00
2022-11-02T23:16:26.360Z,12.00
2022-11-02T23:19:29.983Z,11.90
2022-11-02T23:22:23.319Z,11.90
2022-11-02T23:25:15.208Z,11.80
2022-11-02T23:28:17.383Z,11.70
2022-11-02T23:31:03.247Z,11.80
2022-11-02T23:33:36.170Z,11.70
2022-11-02T23:36:15.326Z,11.70
2022-11-02T23:39:02.788Z,11.60
2022-11-02T23:41:30.882Z,11.60
2022-11-02T23:44:17.276Z,11.90
2022-11-02T23:46:45.919Z,12.90
2022-11-02T23:49:13.639Z,11.70
2022-11-02T23:51:58.858Z,11.70
2022-11-02T23:54:44.522Z,11.60
2022-11-02T23:57:11.285Z,11.70
2022-11-02T23:59:38.032Z,11.70
